Ebervale, Pennsylvania
Current Conditions -  °F | °C
As of 10:55 PM on Saturday 25 Oct 2014 (Local Time) from KHZL Reporting Station
Light Rain Light Rain  
Wind Chill: 61°   Ceiling: 8000
Heat Index: 61°   Visibility: 10mi
Dew Point: 48°   Wind: 10mph
Humidity: 63%   Direction: 260°W
Pressure: 29.64"   Gusts: 26mph
Location:  40.99°N, 75.94°W
Report Text: KHZL 260255Z AUTO 26009G23KT 230V290 10SM -RA SCT065 BKN080 OVC090 16/09 A2964 RMK AO2
Loading
Personal Weather Stations






























Interactive Weather Map
Tropical Storm Tracking
New forecast layout! Learn more

10-Day Weather Forecast

Advertisements
Track Severe Weather on mobile